Poulsbo, WA

8:00 AM PST on February 27, 2015 (GMT -0800)
Central Market Poulsbo | Change Station
CLOSE
Current Station
Personal Weather Station
Location: Poulsbo, WA
Elevation: 68 ft
Nearby Weather Stations

Elev 68 ft 47.75 °N, 122.64 °W | Updated 46 seconds ago

Rain
Rain
46.5 °F
Feels Like 46 °F
N
3.0
Wind Variable Wind from North
Gusts 5.0 mph

Today
High -- | Low -- °F
--% Chance of Precip.
Yesterday
High -- | Low -- °F
Precip. -- in
6:55 AM 5:52 PM
Waxing Gibbous, 69% visible
Pressure 29.75 in
Visibility 8.0 miles
Clouds Mostly Cloudy 1700 ft
Overcast 2300 ft
Windchill 46 °F
Dew Point 44 °F
Humidity 90%
Rainfall 0.66 in
Snow Depth Not available.
UV 0 out of 12
Pollen 4.60 out of 12
Air Quality Not available.
Flu Activity Not available.
METAR KPWT 271555Z AUTO 04006KT 8SM BKN017 OVC023 07/07 A2975 RMK AO1 P0007

More Conditions Fewer Conditions

Pressure 29.75 in
Visibility 8.0 miles
Clouds Mostly Cloudy 1700 ft
Overcast 2300 ft
Windchill 46 °F
Dew Point 44 °F
Humidity 90%
Rainfall 0.66 in
Snow Depth Not available.
UV 0 out of 12
Pollen 4.60 out of 12
Air Quality Not available.
Flu Activity Not available.
METAR KPWT 271555Z AUTO 04006KT 8SM BKN017 OVC023 07/07 A2975 RMK AO1 P0007

More Conditions Fewer Conditions

10-Day Weather Forecast

Almanac

Astronomy

Feb. 27, 2015 Rise Set
Actual Time
Civil Twilight
Nautical Twilight
Astronomical Twilight
Moon
Length of Visible Light
Length of Day
Tomorrow will be .
, % of the Moon is Illuminated

Today's Extremes

State Highs State Lows

Community

WunderPhotos

Upload Photos

1,800,724 photos uploaded!

WunderBlogs® & News

Nearby

Air Quality

  Air Quality AQ Index Pollutant
Not available.

Snow Depth

Station Depth Elevation

Earthquake Activity

City Distance Mag. Time & Date
Minimum magnitude displayed is 2.5.

Coastal Water Temperatures

Place Temperature

Nearby Weather Stations